Time;durP1;ratioP1;P1;durP2;ratioP2;P2;SDS_P1;SDS_P2;PMS_P1;PMS_P2;Temp;Humidity;BMP_temperature;BMP_pressure;BME280_temperature;BME280_humidity;BME280_pressure;Samples;Min_cycle;Max_cycle;Signal;HPM_P1;HPM_P2
2022/08/22 00:01:06;;;;;;;24.60;6.60;;;;;;;20.07;80.89;98417.38;105042;1273;74466;-21
2022/08/22 00:04:15;;;;;;;20.50;6.10;;;;;;;20.37;79.29;98419.63;104759;1273;61150;-21
2022/08/22 00:06:49;;;;;;;24.80;7.10;;;;;;;20.17;79.80;98420.73;104775;1273;61840;-21
2022/08/22 00:09:28;;;;;;;34.20;10.80;;;;;;;19.85;81.05;98419.26;104602;1273;75554;-21
2022/08/22 00:12:28;;;;;;;25.20;6.40;;;;;;;19.56;82.09;98416.79;104976;1273;75003;-21
2022/08/22 00:15:06;;;;;;;18.60;3.40;;;;;;;20.09;80.95;98417.02;104573;1274;73667;-21
2022/08/22 00:17:35;;;;;;;13.30;4.40;;;;;;;20.36;79.62;98414.34;104700;1276;62012;-21
2022/08/22 00:20:02;;;;;;;19.30;3.10;;;;;;;20.21;79.51;98415.98;104821;1273;61109;-21
2022/08/22 00:22:36;;;;;;;22.30;6.80;;;;;;;19.95;79.87;98417.34;104700;1273;75643;-21
2022/08/22 00:25:32;;;;;;;;;;;;;;;19.67;80.53;98410.44;104670;1273;73750;-21
2022/08/22 00:28:10;;;;;;;26.30;9.70;;;;;;;19.96;80.79;98411.80;104525;1273;74240;-21
2022/08/22 00:30:48;;;;;;;22.00;7.70;;;;;;;20.12;79.95;98411.62;104580;1273;61950;-21
2022/08/22 00:33:41;;;;;;;15.50;6.00;;;;;;;19.97;79.82;98406.58;104631;1273;61403;-21
2022/08/22 00:36:23;;;;;;;12.70;5.10;;;;;;;19.63;80.21;98404.98;104696;1273;75559;-21
2022/08/22 00:39:36;;;;;;;15.60;5.00;;;;;;;19.34;81.46;98409.86;104633;1273;75908;-21
2022/08/22 00:42:32;;;;;;;15.00;5.40;;;;;;;19.85;80.83;98408.27;104375;1273;73678;-21
2022/08/22 00:45:54;;;;;;;22.50;6.40;;;;;;;20.01;79.85;98410.23;104955;1273;61251;-21
2022/08/22 00:48:42;;;;;;;17.30;5.00;;;;;;;19.73;79.93;98403.34;104191;1279;61107;-21
2022/08/22 00:51:33;;;;;;;15.60;5.50;;;;;;;19.43;80.65;98408.10;104243;1279;74517;-21
2022/08/22 00:54:07;;;;;;;9.90;3.60;;;;;;;19.19;81.59;98410.20;104713;1273;75953;-25
2022/08/22 00:57:03;;;;;;;14.30;3.80;;;;;;;19.73;80.78;98412.23;104639;1274;74455;-21
2022/08/22 00:59:37;;;;;;;23.60;9.20;;;;;;;20.05;79.65;98407.63;104746;1273;62009;-24
2022/08/22 01:02:43;;;;;;;19.20;5.90;;;;;;;19.89;79.60;98409.19;104845;1273;62023;-23
2022/08/22 01:05:40;;;;;;;17.60;3.60;;;;;;;19.49;80.50;98414.82;105027;1273;75523;-22
2022/08/22 01:08:17;;;;;;;11.80;2.90;;;;;;;19.18;82.37;98415.40;105079;1273;75989;-21
2022/08/22 01:10:55;;;;;;;11.20;2.70;;;;;;;19.58;81.68;98414.60;104666;1273;73387;-20
2022/08/22 01:13:28;;;;;;;14.00;3.00;;;;;;;19.71;80.40;98415.52;104588;1273;62659;-21
2022/08/22 01:16:24;;;;;;;16.00;4.20;;;;;;;19.59;80.64;98414.64;104793;1273;62205;-20
2022/08/22 01:19:29;;;;;;;14.20;3.30;;;;;;;19.16;82.51;98412.17;104774;1273;75624;-19
2022/08/22 01:22:25;;;;;;;11.30;2.10;;;;;;;18.82;84.07;98416.41;104616;1275;75950;-19
2022/08/22 01:25:19;;;;;;;16.10;2.90;;;;;;;19.08;83.36;98422.98;104804;1273;74560;-18
2022/08/22 01:28:11;;;;;;;19.20;3.50;;;;;;;19.05;83.25;98424.30;104715;1273;62108;-19
2022/08/22 01:31:22;;;;;;;14.60;2.90;;;;;;;18.66;85.16;98422.79;104823;1273;61126;-19
2022/08/22 01:34:25;;;;;;;18.40;2.80;;;;;;;18.35;87.04;98420.52;104733;1273;74945;-19
2022/08/22 01:37:22;;;;;;;16.90;2.60;;;;;;;18.61;86.04;98423.13;104780;1273;76515;-18
2022/08/22 01:40:06;;;;;;;11.50;2.80;;;;;;;18.85;84.68;98425.56;104585;1273;75313;-19
2022/08/22 01:42:58;;;;;;;10.60;3.60;;;;;;;18.64;85.16;98427.85;104543;1273;61681;-18
2022/08/22 01:45:51;;;;;;;15.60;2.80;;;;;;;18.51;85.27;98423.96;104576;1273;61135;-20
2022/08/22 01:48:38;;;;;;;12.60;3.30;;;;;;;18.43;85.19;98418.17;104721;1273;75535;-18
2022/08/22 01:51:16;;;;;;;17.20;2.60;;;;;;;19.05;83.34;98419.22;104656;1273;76149;-19
2022/08/22 01:53:58;;;;;;;9.70;2.60;;;;;;;19.39;81.53;98416.14;104775;1273;74408;-19
2022/08/22 01:56:25;;;;;;;11.70;2.70;;;;;;;19.29;81.38;98420.72;104524;1273;61212;-19
2022/08/22 01:59:07;;;;;;;19.60;3.80;;;;;;;19.03;82.11;98425.35;104636;1275;61143;-19
2022/08/22 02:02:15;;;;;;;18.60;3.30;;;;;;;18.67;82.98;98431.68;104586;1273;75413;-19
2022/08/22 02:05:11;;;;;;;16.90;3.00;;;;;;;18.45;84.14;98444.52;104720;1273;75799;-19
2022/08/22 02:07:49;;;;;;;14.50;3.40;;;;;;;19.07;82.73;98438.80;104528;1273;74530;-19
2022/08/22 02:10:53;;;;;;;14.00;2.70;;;;;;;19.28;81.15;98436.80;104614;1273;61179;-19
2022/08/22 02:13:29;;;;;;;17.60;3.70;;;;;;;19.05;81.52;98439.27;104908;1273;61101;-19
2022/08/22 02:16:36;;;;;;;12.10;2.90;;;;;;;18.65;82.84;98439.91;104641;1273;75409;-19
2022/08/22 02:19:12;;;;;;;13.60;2.30;;;;;;;18.44;84.14;98435.88;104624;1274;76014;-19
2022/08/22 02:21:43;;;;;;;17.70;3.60;;;;;;;18.88;83.02;98436.94;104617;1274;74419;-19
2022/08/22 02:24:22;;;;;;;16.10;3.40;;;;;;;19.10;82.15;98435.79;104638;1273;61057;-19
2022/08/22 02:27:27;;;;;;;17.60;3.30;;;;;;;18.97;81.30;98442.32;104656;1275;61226;-19
2022/08/22 02:30:45;;;;;;;17.70;7.20;;;;;;;18.66;81.69;98436.46;104627;1273;75615;-19
2022/08/22 02:33:20;;;;;;;16.30;7.80;;;;;;;18.45;82.62;98436.61;104436;1275;76077;-19
2022/08/22 02:35:54;;;;;;;17.10;5.30;;;;;;;19.04;81.67;98436.14;104734;1273;74390;-21
2022/08/22 02:38:43;;;;;;;12.30;4.10;;;;;;;19.34;80.00;98442.15;104739;1273;61054;-22
2022/08/22 02:41:33;;;;;;;19.10;7.00;;;;;;;19.16;80.17;98440.80;104889;1273;61049;-21
2022/08/22 02:44:12;;;;;;;28.50;14.30;;;;;;;18.82;80.97;98443.08;104639;1274;77117;-21
2022/08/22 02:47:07;;;;;;;23.40;11.40;;;;;;;18.57;81.91;98445.00;104625;1274;76001;-21
2022/08/22 02:50:01;;;;;;;15.10;5.50;;;;;;;18.98;81.48;98448.33;104688;1273;74403;-20
2022/08/22 02:52:39;;;;;;;18.20;5.30;;;;;;;19.11;80.77;98448.04;104642;1274;61040;-19
2022/08/22 02:55:18;;;;;;;11.30;3.70;;;;;;;18.97;80.98;98449.45;104564;1273;62334;-19
2022/08/22 02:58:01;;;;;;;16.60;4.90;;;;;;;18.58;82.47;98447.48;104736;1274;75339;-22
2022/08/22 03:00:40;;;;;;;54.70;21.10;;;;;;;18.16;84.87;98445.86;104643;1273;75980;-19
2022/08/22 03:03:20;;;;;;;41.60;14.30;;;;;;;18.60;83.67;98451.52;104550;1276;75244;-19
2022/08/22 03:06:02;;;;;;;47.00;20.40;;;;;;;18.95;82.05;98450.05;104671;1273;62024;-20
2022/08/22 03:08:34;;;;;;;22.70;7.20;;;;;;;18.84;81.17;98447.59;104626;1274;61282;-19
2022/08/22 03:11:10;;;;;;;11.40;5.70;;;;;;;18.58;81.67;98448.05;104840;1274;74550;-19
2022/08/22 03:13:55;;;;;;;19.40;4.10;;;;;;;18.36;82.46;98445.70;104764;1273;75829;-22
2022/08/22 03:16:28;;;;;;;8.60;3.30;;;;;;;18.73;81.87;98452.02;104762;1274;74478;-20
2022/08/22 03:19:08;;;;;;;;;;;;;;;18.99;80.82;98455.70;104713;1273;61999;-21
2022/08/22 03:22:08;;;;;;;11.40;2.90;;;;;;;18.83;80.92;98458.88;104748;1274;62021;-21
2022/08/22 03:24:55;;;;;;;18.70;4.60;;;;;;;18.32;83.34;98459.48;104970;1273;75400;-20
2022/08/22 03:27:25;;;;;;;28.10;6.70;;;;;;;18.06;85.04;98463.20;104767;1273;76384;-20
2022/08/22 03:30:20;;;;;;;15.70;5.40;;;;;;;18.45;83.48;98463.57;104982;1273;74433;-20
2022/08/22 03:32:58;;;;;;;21.60;6.10;;;;;;;18.56;82.46;98463.09;105066;1273;61963;-20
2022/08/22 03:35:41;;;;;;;23.70;6.50;;;;;;;18.60;82.41;98461.77;104790;1274;61179;-22
2022/08/22 03:38:32;;;;;;;33.30;10.40;;;;;;;18.33;83.29;98465.86;104735;1274;75512;-20
2022/08/22 03:41:11;;;;;;;34.70;10.10;;;;;;;18.06;84.73;98476.59;104716;1274;76029;-20
2022/08/22 03:44:00;;;;;;;36.80;12.00;;;;;;;18.23;84.54;98478.15;104696;1273;74180;-21
2022/08/22 03:46:49;;;;;;;20.10;6.20;;;;;;;18.55;82.75;98483.40;104613;1274;61156;-20
2022/08/22 03:49:32;;;;;;;21.10;4.70;;;;;;;18.46;82.90;98484.83;104645;1273;61099;-21
2022/08/22 03:52:12;;;;;;;11.30;4.30;;;;;;;18.35;83.47;98490.98;104944;1273;75567;-22
2022/08/22 03:54:54;;;;;;;15.60;3.00;;;;;;;18.35;83.55;98499.05;104926;1274;76022;-20
2022/08/22 03:58:11;;;;;;;14.60;2.90;;;;;;;18.96;81.86;98493.11;104666;1274;74279;-20
2022/08/22 04:01:13;;;;;;;13.40;3.60;;;;;;;19.38;79.38;98497.52;104364;1274;61115;-20
2022/08/22 04:04:13;;;;;;;17.10;3.30;;;;;;;19.38;79.63;98497.67;104670;1274;62380;-21
2022/08/22 04:06:48;;;;;;;18.00;3.10;;;;;;;19.17;79.85;98487.82;103686;1274;1289268;-22
2022/08/22 04:09:29;;;;;;;8.00;2.00;;;;;;;18.83;81.23;98487.36;104753;1274;75903;-22
2022/08/22 04:12:09;;;;;;;11.60;2.70;;;;;;;19.36;79.77;98490.63;104959;1274;74596;-22
2022/08/22 04:15:00;;;;;;;17.90;3.40;;;;;;;19.75;77.94;98497.09;104911;1274;61068;-21
2022/08/22 04:17:35;;;;;;;14.50;3.60;;;;;;;19.71;77.95;98501.82;105005;1274;61135;-22
2022/08/22 04:20:08;;;;;;;13.30;3.00;;;;;;;19.69;77.99;98507.34;104989;1273;75742;-21
2022/08/22 04:22:45;;;;;;;18.40;3.80;;;;;;;19.65;78.09;98505.95;104710;1274;75989;-21
2022/08/22 04:25:35;;;;;;;15.00;5.00;;;;;;;20.10;76.85;98510.30;104720;1274;74454;-21
2022/08/22 04:28:14;;;;;;;13.60;5.10;;;;;;;20.53;75.86;98514.48;104619;1274;62062;-21
2022/08/22 04:30:46;;;;;;;22.70;6.10;;;;;;;20.70;75.30;98516.17;104689;1273;61137;-21
2022/08/22 04:33:37;;;;;;;16.50;4.90;;;;;;;20.62;74.28;98513.48;104679;1273;75497;-21
2022/08/22 04:36:14;;;;;;;17.10;4.50;;;;;;;20.32;75.24;98513.02;104971;1274;76015;-21
2022/08/22 04:38:55;;;;;;;15.60;2.80;;;;;;;20.16;76.35;98509.25;104595;1274;73407;-21
2022/08/22 04:41:36;;;;;;;15.70;3.30;;;;;;;20.79;74.86;98509.14;104603;1274;61231;-21
2022/08/22 04:44:06;;;;;;;15.60;3.40;;;;;;;21.13;73.32;98510.70;104531;1275;61077;-22
2022/08/22 04:47:10;;;;;;;14.80;3.10;;;;;;;21.08;72.54;98511.39;104556;1274;75799;-22
2022/08/22 04:49:44;;;;;;;15.00;3.40;;;;;;;20.78;73.77;98513.00;104755;1274;76002;-22
2022/08/22 04:52:20;;;;;;;19.90;3.50;;;;;;;20.63;74.62;98510.31;104444;1277;74453;-22
2022/08/22 04:55:17;;;;;;;18.60;2.90;;;;;;;20.65;75.27;98511.56;104544;1274;62535;-22
2022/08/22 04:58:22;;;;;;;13.90;3.10;;;;;;;21.52;73.97;98512.48;104736;1273;61045;-22
2022/08/22 05:01:17;;;;;;;18.80;3.50;;;;;;;22.06;71.25;98513.80;105001;1273;75747;-22
2022/08/22 05:03:50;;;;;;;18.40;4.40;;;;;;;22.05;70.73;98514.35;104975;1274;75823;-22
2022/08/22 05:06:18;;;;;;;17.40;5.20;;;;;;;21.76;71.84;98512.98;104783;1274;74268;-23
2022/08/22 05:08:47;;;;;;;21.50;5.00;;;;;;;21.68;71.28;98513.38;104620;1275;62033;-21
2022/08/22 05:11:21;;;;;;;13.90;5.50;;;;;;;21.48;72.61;98515.71;104601;1274;62381;-24
2022/08/22 05:14:01;;;;;;;16.20;5.60;;;;;;;21.49;73.54;98516.70;104536;1274;75412;-22
2022/08/22 05:16:32;;;;;;;16.70;4.30;;;;;;;22.23;71.67;98515.45;104510;1275;75959;-22
2022/08/22 05:19:20;;;;;;;19.20;4.60;;;;;;;22.74;69.33;98517.42;104591;1274;74242;-22
2022/08/22 05:21:58;;;;;;;17.60;4.20;;;;;;;22.81;68.82;98516.51;104607;1274;62067;-23
2022/08/22 05:24:41;;;;;;;18.50;4.30;;;;;;;22.71;69.99;98519.21;104681;1274;61048;-23
2022/08/22 05:27:10;;;;;;;;;;;;;;;22.58;70.26;98521.55;104673;1274;75594;-23
2022/08/22 05:29:38;;;;;;;21.50;4.40;;;;;;;22.32;70.88;98524.89;104571;1274;74973;-23
2022/08/22 05:32:08;;;;;;;17.80;4.00;;;;;;;22.36;71.46;98527.45;104584;1275;74385;-23
2022/08/22 05:34:37;;;;;;;24.40;4.30;;;;;;;22.41;70.93;98531.17;104695;1274;62560;-23
2022/08/22 05:37:32;;;;;;;17.30;3.50;;;;;;;22.73;69.75;98529.77;104652;1273;61884;-23
2022/08/22 05:39:59;;;;;;;22.90;5.30;;;;;;;23.28;68.84;98532.89;104486;1274;75549;-23
2022/08/22 05:42:30;;;;;;;18.10;5.60;;;;;;;23.31;68.42;98532.55;104547;1275;76012;-24
2022/08/22 05:44:59;;;;;;;19.00;4.40;;;;;;;22.96;68.91;98534.05;104530;1273;74523;-24
2022/08/22 05:47:37;;;;;;;23.90;4.30;;;;;;;22.93;69.98;98541.96;104546;1275;61874;-23
2022/08/22 05:50:17;;;;;;;20.50;4.90;;;;;;;22.52;70.69;98541.48;104510;1275;61842;-23
2022/08/22 05:52:55;;;;;;;19.30;4.70;;;;;;;22.41;70.46;98538.35;104631;1274;74362;-22
2022/08/22 05:55:25;;;;;;;16.30;3.70;;;;;;;22.55;71.48;98538.75;104627;1274;76206;-23
2022/08/22 05:57:59;;;;;;;17.10;4.10;;;;;;;22.85;69.49;98542.20;104649;1274;74354;-24
2022/08/22 06:00:27;;;;;;;21.40;3.90;;;;;;;23.02;69.64;98546.20;104611;1273;61234;-23
2022/08/22 06:03:00;;;;;;;23.80;5.40;;;;;;;22.72;70.77;98550.91;104530;1274;61075;-24
2022/08/22 06:05:29;;;;;;;20.80;4.90;;;;;;;22.54;71.75;98554.13;104643;1274;75605;-24
2022/08/22 06:08:35;;;;;;;21.30;3.70;;;;;;;22.49;71.26;98554.52;104749;1274;75835;-21
2022/08/22 06:11:06;;;;;;;23.10;4.60;;;;;;;22.54;71.84;98552.30;105031;1274;73275;-21
2022/08/22 06:13:37;;;;;;;16.80;3.70;;;;;;;23.10;70.06;98547.63;104696;1274;62241;-20
2022/08/22 06:16:15;;;;;;;20.50;4.30;;;;;;;23.26;69.16;98544.16;104500;1274;61163;-24
2022/08/22 06:18:43;;;;;;;12.30;4.20;;;;;;;23.18;69.61;98550.30;104634;1274;75605;-25
2022/08/22 06:21:21;;;;;;;12.30;3.70;;;;;;;22.97;70.36;98547.40;104634;1274;76093;-24
2022/08/22 06:23:55;;;;;;;18.50;3.80;;;;;;;22.68;71.55;98545.84;104601;1275;74428;-23
2022/08/22 06:26:24;;;;;;;13.10;2.70;;;;;;;22.60;71.20;98543.95;104577;1274;63498;-24
2022/08/22 06:28:52;;;;;;;15.80;3.30;;;;;;;23.01;71.15;98547.64;104610;1275;61098;-23
2022/08/22 06:31:31;;;;;;;25.70;3.80;;;;;;;23.09;71.42;98549.40;104611;1274;75364;-23
2022/08/22 06:34:21;;;;;;;18.60;3.70;;;;;;;23.37;70.74;98551.73;104697;1274;76137;-23
2022/08/22 06:36:49;;;;;;;19.00;4.10;;;;;;;23.42;69.68;98557.35;104605;1274;74349;-23
2022/08/22 06:39:24;;;;;;;19.60;4.30;;;;;;;23.35;70.58;98562.83;104734;1275;62060;-22
2022/08/22 06:41:52;;;;;;;17.00;3.40;;;;;;;22.97;71.61;98562.30;104681;1273;61886;-23
2022/08/22 06:44:22;;;;;;;20.20;3.50;;;;;;;23.24;71.18;98563.95;104770;1274;75463;-23
2022/08/22 06:46:51;;;;;;;15.10;3.80;;;;;;;23.69;71.07;98563.75;104797;1274;76247;-22
2022/08/22 06:49:18;;;;;;;16.40;3.80;;;;;;;23.58;70.90;98564.82;104812;1274;74530;-23
2022/08/22 06:51:45;;;;;;;24.40;3.90;;;;;;;23.69;69.47;98563.34;104984;1274;61198;-24
2022/08/22 06:54:23;;;;;;;19.50;3.90;;;;;;;23.63;70.27;98561.95;104739;1275;61105;-24
2022/08/22 06:56:50;;;;;;;29.90;4.30;;;;;;;23.72;69.21;98559.70;104951;1274;75612;-22
2022/08/22 06:59:22;;;;;;;18.60;5.20;;;;;;;23.75;70.57;98560.90;104771;1273;76039;-24
2022/08/22 07:01:54;;;;;;;19.60;4.40;;;;;;;24.34;69.35;98558.18;104732;1273;73360;-23
2022/08/22 07:04:25;;;;;;;16.20;3.60;;;;;;;24.68;67.53;98558.54;104847;1273;61999;-23
2022/08/22 07:06:53;;;;;;;18.70;4.40;;;;;;;24.79;67.57;98552.85;104582;1274;61035;-23
2022/08/22 07:09:22;;;;;;;19.20;4.60;;;;;;;24.63;67.12;98560.26;104628;1273;75610;-23
2022/08/22 07:11:50;;;;;;;20.00;4.10;;;;;;;24.49;67.03;98565.27;104664;1273;75988;-23
2022/08/22 07:14:38;;;;;;;22.50;5.20;;;;;;;24.27;67.50;98564.74;104949;1273;73470;-23
2022/08/22 07:17:07;;;;;;;27.40;5.10;;;;;;;24.26;68.48;98565.89;104888;1273;61150;-23
2022/08/22 07:19:44;;;;;;;16.50;3.60;;;;;;;24.31;69.00;98568.88;104689;1273;61198;-23
2022/08/22 07:22:19;;;;;;;15.90;3.30;;;;;;;24.98;67.36;98566.73;104637;1274;75499;-23
2022/08/22 07:24:49;;;;;;;18.40;4.00;;;;;;;25.27;66.75;98571.00;104642;1273;74871;-21
2022/08/22 07:27:46;;;;;;;22.80;5.00;;;;;;;25.50;66.25;98569.88;104530;1273;73484;-24
2022/08/22 07:30:16;;;;;;;20.40;5.40;;;;;;;25.63;65.09;98571.95;104534;1273;61313;-22
2022/08/22 07:32:59;;;;;;;31.70;4.80;;;;;;;25.62;65.23;98572.83;104497;1273;61115;-23
2022/08/22 07:35:49;;;;;;;27.50;6.30;;;;;;;25.50;65.22;98575.08;104566;1273;75474;-24
2022/08/22 07:38:42;;;;;;;26.30;5.50;;;;;;;25.52;66.01;98572.90;104546;1274;74840;-22
2022/08/22 07:41:19;;;;;;;26.40;5.40;;;;;;;25.72;66.72;98574.14;104626;1273;73362;-23
2022/08/22 07:44:10;;;;;;;19.90;5.20;;;;;;;25.71;64.84;98570.55;104577;1273;61940;-22
2022/08/22 07:47:15;;;;;;;24.20;4.80;;;;;;;25.62;65.87;98576.56;104584;1273;62062;-22
2022/08/22 07:49:57;;;;;;;28.20;4.50;;;;;;;25.65;65.39;98578.71;104341;1277;75417;-23
2022/08/22 07:52:24;;;;;;;27.80;6.10;;;;;;;25.70;64.58;98580.92;104344;1277;75227;-23
2022/08/22 07:54:55;;;;;;;24.10;4.50;;;;;;;25.75;65.07;98573.89;104288;1277;74563;-23
2022/08/22 07:57:21;;;;;;;21.40;4.80;;;;;;;25.95;64.49;98571.18;104127;1278;61172;-23
2022/08/22 07:59:54;;;;;;;29.10;5.40;;;;;;;26.13;63.96;98574.09;104194;1277;61161;-23
2022/08/22 08:02:21;;;;;;;28.90;5.20;;;;;;;26.25;63.41;98575.54;104066;1278;75372;-23
2022/08/22 08:04:49;;;;;;;21.70;5.50;;;;;;;26.42;62.67;98571.73;104165;1278;75958;-23
2022/08/22 08:07:20;;;;;;;28.60;4.70;;;;;;;26.66;61.93;98571.64;104150;1278;74622;-23
2022/08/22 08:09:53;;;;;;;29.70;5.60;;;;;;;26.75;61.92;98576.16;104035;1278;62006;-23
2022/08/22 08:12:29;;;;;;;29.50;5.50;;;;;;;26.57;61.14;98573.57;104427;1277;61900;-23
2022/08/22 08:14:56;;;;;;;29.90;5.00;;;;;;;26.66;61.86;98576.39;104443;1279;74624;-23
2022/08/22 08:17:27;;;;;;;26.20;5.00;;;;;;;26.79;61.00;98574.59;104488;1278;75992;-23
2022/08/22 08:20:03;;;;;;;29.10;5.60;;;;;;;26.99;61.04;98570.23;104330;1279;73664;-23
2022/08/22 08:22:30;;;;;;;32.00;5.20;;;;;;;26.93;61.85;98575.34;104115;1280;61275;-23
2022/08/22 08:24:57;;;;;;;31.20;5.50;;;;;;;27.36;59.71;98576.05;104500;1275;62048;-23
2022/08/22 08:30:33;;;;;;;28.70;5.90;;;;;;;27.52;60.08;98572.84;104589;1273;75971;-23
2022/08/22 08:33:00;;;;;;;28.50;4.80;;;;;;;27.74;58.58;98568.56;104779;1273;74215;-23
2022/08/22 08:36:17;;;;;;;31.90;5.30;;;;;;;27.94;57.79;98569.81;104933;1273;61312;-24
2022/08/22 08:38:48;;;;;;;28.50;5.00;;;;;;;28.14;56.65;98569.35;104843;1273;63851;-24
2022/08/22 08:41:45;;;;;;;28.60;4.90;;;;;;;28.27;56.25;98566.32;104623;1273;73363;-23
2022/08/22 08:44:34;;;;;;;32.50;5.00;;;;;;;28.58;55.84;98564.77;104549;1273;76016;-23
2022/08/22 08:47:24;;;;;;;28.70;4.60;;;;;;;28.81;54.54;98565.92;104974;1273;74322;-23
2022/08/22 08:50:00;;;;;;;25.00;4.70;;;;;;;29.01;54.28;98565.36;104763;1274;61824;-26
2022/08/22 08:53:00;;;;;;;24.90;4.30;;;;;;;29.28;55.02;98559.84;104933;1273;62169;-23
2022/08/22 08:55:36;;;;;;;29.00;4.80;;;;;;;29.37;54.61;98557.95;104997;1273;75541;-23
2022/08/22 08:58:15;;;;;;;27.20;5.10;;;;;;;29.53;53.22;98554.99;104954;1273;76387;-24
2022/08/22 09:00:57;;;;;;;33.10;4.70;;;;;;;29.29;51.88;98560.91;104760;1273;74501;-24
2022/08/22 09:03:49;;;;;;;20.40;4.10;;;;;;;28.75;51.86;98557.95;104768;1273;61153;-24
2022/08/22 09:06:52;;;;;;;24.10;4.70;;;;;;;28.56;52.00;98553.92;104559;1274;61859;-24
2022/08/22 09:09:40;;;;;;;17.20;3.70;;;;;;;28.79;52.19;98554.44;104730;1273;75583;-23
2022/08/22 09:12:27;;;;;;;24.40;3.90;;;;;;;28.52;52.28;98554.44;104632;1273;74796;-23
2022/08/22 09:15:13;;;;;;;18.00;3.40;;;;;;;29.03;50.97;98560.02;104715;1273;75761;-24
2022/08/22 09:18:13;;;;;;;27.50;3.80;;;;;;;29.14;51.13;98556.76;104923;1273;62024;-24
2022/08/22 09:21:03;;;;;;;24.30;3.50;;;;;;;28.55;51.14;98554.45;105021;1273;61231;-24
2022/08/22 09:23:54;;;;;;;20.50;3.70;;;;;;;28.86;50.85;98555.34;104942;1273;75559;-23
2022/08/22 09:26:27;;;;;;;25.30;3.50;;;;;;;29.09;50.18;98555.65;104909;1273;76148;-22
2022/08/22 09:28:58;;;;;;;23.90;3.10;;;;;;;28.51;51.33;98557.85;104599;1273;74180;-23
2022/08/22 09:31:35;;;;;;;20.70;3.30;;;;;;;28.93;51.22;98559.38;104671;1273;61170;-23
2022/08/22 09:34:28;;;;;;;13.60;4.00;;;;;;;28.81;49.77;98554.29;104574;1273;61875;-23
2022/08/22 09:37:15;;;;;;;15.40;3.90;;;;;;;28.71;50.69;98554.26;104608;1273;75550;-23
2022/08/22 09:40:05;;;;;;;24.20;4.50;;;;;;;28.94;50.34;98553.43;104806;1274;75243;-23
2022/08/22 09:43:01;;;;;;;16.00;3.90;;;;;;;28.88;50.23;98559.30;104332;1275;73438;-23
2022/08/22 09:45:51;;;;;;;25.30;4.10;;;;;;;28.62;50.49;98556.55;104631;1273;61289;-23
2022/08/22 09:48:28;;;;;;;28.70;4.70;;;;;;;28.95;49.74;98560.17;104635;1274;61304;-23
2022/08/22 09:51:24;;;;;;;15.40;3.80;;;;;;;29.01;50.41;98557.64;104820;1273;75594;-23
2022/08/22 09:54:18;;;;;;;30.00;4.50;;;;;;;29.38;49.02;98553.02;104680;1274;75132;-23
2022/08/22 09:57:04;;;;;;;22.90;4.00;;;;;;;30.04;48.76;98553.09;104733;1273;74423;-23
2022/08/22 10:00:09;;;;;;;14.20;2.80;;;;;;;30.61;48.73;98563.59;104878;1273;61860;-23
2022/08/22 10:03:01;;;;;;;27.10;4.40;;;;;;;31.30;46.12;98560.02;104589;1273;61042;-23
2022/08/22 10:05:36;;;;;;;20.40;3.70;;;;;;;31.51;45.81;98563.64;104583;1273;75515;-23
2022/08/22 10:08:29;;;;;;;19.60;4.60;;;;;;;32.14;45.33;98561.13;104701;1273;76069;-23
2022/08/22 10:11:20;;;;;;;15.70;4.20;;;;;;;31.97;43.55;98555.42;104831;1273;74284;-23
2022/08/22 10:14:01;;;;;;;14.80;3.60;;;;;;;32.53;43.54;98556.16;104905;1273;61129;-24
2022/08/22 10:16:44;;;;;;;19.30;4.30;;;;;;;32.11;41.93;98561.01;104791;1273;61083;-23
2022/08/22 10:19:30;;;;;;;15.20;4.10;;;;;;;31.96;43.30;98564.86;104962;1273;75410;-23
2022/08/22 10:22:29;;;;;;;18.90;3.80;;;;;;;32.06;42.22;98563.33;104990;1273;74787;-24
2022/08/22 10:25:48;;;;;;;21.50;4.00;;;;;;;30.94;45.34;98564.59;104836;1273;74574;-23
2022/08/22 10:28:18;;;;;;;18.60;3.60;;;;;;;30.76;45.80;98566.92;104340;1278;61942;-23
2022/08/22 10:31:16;;;;;;;15.50;4.20;;;;;;;29.93;47.01;98565.95;104234;1278;61269;-23
2022/08/22 10:33:48;;;;;;;21.20;4.20;;;;;;;29.97;48.05;98564.48;104315;1273;75550;-24
2022/08/22 10:36:22;;;;;;;24.00;4.00;;;;;;;30.26;46.68;98557.17;104599;1273;74929;-23
2022/08/22 10:38:54;;;;;;;17.70;4.30;;;;;;;30.16;47.18;98557.04;104538;1273;74449;-23
2022/08/22 10:41:31;;;;;;;20.20;4.20;;;;;;;30.23;47.19;98557.54;104545;1273;61913;-23
2022/08/22 10:44:04;;;;;;;18.70;3.80;;;;;;;30.25;46.06;98551.77;104638;1272;61049;-23
2022/08/22 10:46:40;;;;;;;19.40;4.10;;;;;;;30.53;45.43;98552.58;104641;1273;76948;-24
2022/08/22 10:49:20;;;;;;;16.60;4.20;;;;;;;30.85;44.66;98558.22;104625;1273;75014;-23
2022/08/22 10:52:08;;;;;;;22.50;3.90;;;;;;;30.94;43.80;98556.14;104584;1273;74284;-24
2022/08/22 10:54:47;;;;;;;20.90;3.50;;;;;;;30.69;43.81;98558.17;104624;1273;61155;-23
2022/08/22 10:57:17;;;;;;;17.70;4.10;;;;;;;30.46;44.03;98561.16;104632;1273;61138;-23
2022/08/22 11:00:04;;;;;;;13.10;4.00;;;;;;;30.67;43.62;98559.26;104651;1273;75403;-24
2022/08/22 11:02:35;;;;;;;20.40;7.60;;;;;;;30.82;43.64;98560.29;104576;1273;75972;-23
2022/08/22 11:05:21;;;;;;;22.20;4.70;;;;;;;30.66;43.99;98557.79;104620;1273;74274;-23
2022/08/22 11:08:15;;;;;;;18.70;3.90;;;;;;;31.58;43.43;98560.77;104424;1273;61082;-24
2022/08/22 11:11:01;;;;;;;14.30;3.50;;;;;;;32.05;40.36;98553.82;104632;1273;61286;-23
2022/08/22 11:13:58;;;;;;;13.40;3.70;;;;;;;32.28;40.27;98553.83;104628;1273;75399;-23
2022/08/22 11:16:42;;;;;;;17.20;3.30;;;;;;;32.34;40.53;98557.23;105024;1273;75905;-23
2022/08/22 11:19:11;;;;;;;12.90;3.10;;;;;;;32.64;40.60;98557.05;104883;1273;74572;-23
2022/08/22 11:21:55;;;;;;;19.80;3.40;;;;;;;32.44;39.27;98553.44;104803;1273;61116;-24
2022/08/22 11:24:26;;;;;;;15.90;4.10;;;;;;;32.78;39.24;98555.05;104778;1273;62588;-24
2022/08/22 11:27:04;;;;;;;12.10;3.20;;;;;;;32.80;39.24;98555.23;104661;1273;75399;-24
2022/08/22 11:29:47;;;;;;;12.70;3.80;;;;;;;32.90;38.14;98552.83;104662;1273;76287;-24
2022/08/22 11:32:19;;;;;;;16.90;4.40;;;;;;;31.36;40.25;98553.48;104668;1275;73377;-24
2022/08/22 11:35:22;;;;;;;24.10;8.90;;;;;;;30.80;42.40;98554.83;104758;1274;62750;-24
2022/08/22 11:37:56;;;;;;;26.80;11.50;;;;;;;30.67;41.38;98555.90;104494;1273;61095;-24
2022/08/22 11:40:42;;;;;;;16.20;3.90;;;;;;;31.14;41.94;98553.44;104579;1273;75558;-24
2022/08/22 11:43:37;;;;;;;19.10;3.70;;;;;;;30.91;41.53;98551.54;104613;1273;76213;-24
2022/08/22 11:46:23;;;;;;;20.40;3.10;;;;;;;31.35;40.29;98552.95;104591;1273;74408;-24
2022/08/22 11:49:08;;;;;;;16.90;3.60;;;;;;;31.23;40.68;98550.52;104596;1273;61943;-24
2022/08/22 11:52:09;;;;;;;17.70;4.30;;;;;;;31.18;41.51;98551.59;104813;1273;61036;-24
2022/08/22 11:54:57;;;;;;;16.00;5.80;;;;;;;30.55;41.56;98540.40;104624;1273;77423;-24
2022/08/22 11:57:32;;;;;;;20.30;3.90;;;;;;;30.07;44.17;98546.91;104643;1273;76124;-24
2022/08/22 12:00:18;;;;;;;19.90;3.60;;;;;;;30.93;42.08;98542.02;104635;1273;74577;-24
2022/08/22 12:03:15;;;;;;;20.10;3.40;;;;;;;31.41;42.23;98539.64;104786;1273;61761;-24
2022/08/22 12:06:10;;;;;;;22.70;3.60;;;;;;;31.85;39.86;98536.39;104878;1273;62069;-25
2022/08/22 12:09:01;;;;;;;26.50;5.10;;;;;;;31.75;40.39;98534.44;104576;1273;75520;-24
2022/08/22 12:11:58;;;;;;;23.90;3.90;;;;;;;31.70;41.55;98535.60;104607;1274;75982;-24
2022/08/22 12:14:35;;;;;;;24.40;4.40;;;;;;;31.23;41.07;98534.50;104633;1273;74478;-24
2022/08/22 12:17:45;;;;;;;22.00;4.20;;;;;;;30.83;42.59;98528.28;104623;1273;61042;-24
2022/08/22 12:20:34;;;;;;;23.40;4.70;;;;;;;30.42;43.12;98528.40;104487;1274;61037;-24
2022/08/22 12:23:29;;;;;;;27.50;4.40;;;;;;;30.25;42.72;98528.55;104601;1273;75713;-24
2022/08/22 12:26:50;;;;;;;33.90;4.20;;;;;;;30.44;42.88;98523.94;104713;1273;76026;-24
2022/08/22 12:29:17;;;;;;;26.60;5.80;;;;;;;30.68;42.32;98519.48;104693;1273;74252;-24
2022/08/22 12:31:55;;;;;;;22.80;4.40;;;;;;;30.36;43.49;98523.30;104679;1273;61047;-24